sensor_id;sensor_type;location;lat;lon;timestamp;temperature;humidity
10314;DHT22;5202;49.138;10.090;2023-07-29T00:01:03;16.00;99.90
10314;DHT22;5202;49.138;10.090;2023-07-29T00:03:31;16.00;99.90
10314;DHT22;5202;49.138;10.090;2023-07-29T00:06:00;15.90;99.90
10314;DHT22;5202;49.138;10.090;2023-07-29T00:08:35;15.90;99.90
10314;DHT22;5202;49.138;10.090;2023-07-29T00:11:05;15.90;99.90
10314;DHT22;5202;49.138;10.090;2023-07-29T00:13:33;15.90;99.90
10314;DHT22;5202;49.138;10.090;2023-07-29T00:16:02;15.90;99.90
10314;DHT22;5202;49.138;10.090;2023-07-29T00:18:30;15.90;99.90
10314;DHT22;5202;49.138;10.090;2023-07-29T00:20:59;15.90;99.90
10314;DHT22;5202;49.138;10.090;2023-07-29T00:23:28;15.90;99.90
10314;DHT22;5202;49.138;10.090;2023-07-29T00:25:57;15.90;99.90
10314;DHT22;5202;49.138;10.090;2023-07-29T00:28:27;15.80;99.90
10314;DHT22;5202;49.138;10.090;2023-07-29T00:30:55;15.80;99.90
10314;DHT22;5202;49.138;10.090;2023-07-29T00:33:24;15.80;99.90
10314;DHT22;5202;49.138;10.090;2023-07-29T00:35:52;15.70;99.90
10314;DHT22;5202;49.138;10.090;2023-07-29T00:38:21;15.70;99.90
10314;DHT22;5202;49.138;10.090;2023-07-29T00:40:49;15.60;99.90
10314;DHT22;5202;49.138;10.090;2023-07-29T00:43:18;15.60;99.90
10314;DHT22;5202;49.138;10.090;2023-07-29T00:45:47;15.60;99.90
10314;DHT22;5202;49.138;10.090;2023-07-29T00:48:16;15.60;99.90
10314;DHT22;5202;49.138;10.090;2023-07-29T00:50:44;15.70;99.90
10314;DHT22;5202;49.138;10.090;2023-07-29T00:53:13;15.60;99.90
10314;DHT22;5202;49.138;10.090;2023-07-29T00:55:42;15.60;99.90
10314;DHT22;5202;49.138;10.090;2023-07-29T00:58:10;15.50;99.90
10314;DHT22;5202;49.138;10.090;2023-07-29T01:00:39;15.50;99.90
10314;DHT22;5202;49.138;10.090;2023-07-29T01:03:09;15.60;99.90
10314;DHT22;5202;49.138;10.090;2023-07-29T01:05:45;15.60;99.90
10314;DHT22;5202;49.138;10.090;2023-07-29T01:08:24;15.60;99.90
10314;DHT22;5202;49.138;10.090;2023-07-29T01:11:03;15.60;99.90
10314;DHT22;5202;49.138;10.090;2023-07-29T01:13:45;15.60;99.90
10314;DHT22;5202;49.138;10.090;2023-07-29T01:16:23;15.60;99.90
10314;DHT22;5202;49.138;10.090;2023-07-29T01:18:58;15.60;99.90
10314;DHT22;5202;49.138;10.090;2023-07-29T01:21:32;15.60;99.90
10314;DHT22;5202;49.138;10.090;2023-07-29T01:24:03;15.50;99.90
10314;DHT22;5202;49.138;10.090;2023-07-29T01:26:32;15.50;99.90
10314;DHT22;5202;49.138;10.090;2023-07-29T01:29:02;15.50;99.90
10314;DHT22;5202;49.138;10.090;2023-07-29T01:31:33;15.50;99.90
10314;DHT22;5202;49.138;10.090;2023-07-29T01:34:08;15.40;99.90
10314;DHT22;5202;49.138;10.090;2023-07-29T01:36:41;15.40;99.90
10314;DHT22;5202;49.138;10.090;2023-07-29T01:39:15;15.40;99.90
10314;DHT22;5202;49.138;10.090;2023-07-29T01:41:45;15.40;99.90
10314;DHT22;5202;49.138;10.090;2023-07-29T01:44:14;15.50;99.90
10314;DHT22;5202;49.138;10.090;2023-07-29T01:46:44;15.50;99.90
10314;DHT22;5202;49.138;10.090;2023-07-29T01:49:12;15.60;99.90
10314;DHT22;5202;49.138;10.090;2023-07-29T01:51:41;15.60;99.90
10314;DHT22;5202;49.138;10.090;2023-07-29T01:54:10;15.70;99.90
10314;DHT22;5202;49.138;10.090;2023-07-29T01:56:40;15.70;99.90
10314;DHT22;5202;49.138;10.090;2023-07-29T01:59:08;15.70;99.90
10314;DHT22;5202;49.138;10.090;2023-07-29T02:01:37;15.70;99.90
10314;DHT22;5202;49.138;10.090;2023-07-29T02:04:05;15.70;99.90
10314;DHT22;5202;49.138;10.090;2023-07-29T02:06:34;15.70;99.90
10314;DHT22;5202;49.138;10.090;2023-07-29T02:09:03;15.70;99.90
10314;DHT22;5202;49.138;10.090;2023-07-29T02:11:32;15.70;99.90
10314;DHT22;5202;49.138;10.090;2023-07-29T02:14:01;15.70;99.90
10314;DHT22;5202;49.138;10.090;2023-07-29T02:16:30;15.70;99.90
10314;DHT22;5202;49.138;10.090;2023-07-29T02:18:59;15.70;99.90
10314;DHT22;5202;49.138;10.090;2023-07-29T02:21:28;15.70;99.90
10314;DHT22;5202;49.138;10.090;2023-07-29T02:23:56;15.70;99.90
10314;DHT22;5202;49.138;10.090;2023-07-29T02:26:25;15.60;99.90
10314;DHT22;5202;49.138;10.090;2023-07-29T02:28:53;15.70;99.90
10314;DHT22;5202;49.138;10.090;2023-07-29T02:31:24;15.70;99.90
10314;DHT22;5202;49.138;10.090;2023-07-29T02:33:53;15.70;99.90
10314;DHT22;5202;49.138;10.090;2023-07-29T02:36:22;15.70;99.90
10314;DHT22;5202;49.138;10.090;2023-07-29T02:38:50;15.70;99.90
10314;DHT22;5202;49.138;10.090;2023-07-29T02:41:19;15.70;99.90
10314;DHT22;5202;49.138;10.090;2023-07-29T02:43:49;15.70;99.90
10314;DHT22;5202;49.138;10.090;2023-07-29T02:46:18;15.70;99.90
10314;DHT22;5202;49.138;10.090;2023-07-29T02:48:48;15.70;99.90
10314;DHT22;5202;49.138;10.090;2023-07-29T02:51:16;15.70;99.90
10314;DHT22;5202;49.138;10.090;2023-07-29T02:53:44;15.80;99.90
10314;DHT22;5202;49.138;10.090;2023-07-29T02:56:12;15.80;99.90
10314;DHT22;5202;49.138;10.090;2023-07-29T02:58:41;15.80;99.90
10314;DHT22;5202;49.138;10.090;2023-07-29T03:01:09;15.80;99.90
10314;DHT22;5202;49.138;10.090;2023-07-29T03:03:38;15.80;99.90
10314;DHT22;5202;49.138;10.090;2023-07-29T03:06:10;15.80;99.90
10314;DHT22;5202;49.138;10.090;2023-07-29T03:08:39;15.80;99.90
10314;DHT22;5202;49.138;10.090;2023-07-29T03:11:10;15.80;99.90
10314;DHT22;5202;49.138;10.090;2023-07-29T03:13:41;15.90;99.90
10314;DHT22;5202;49.138;10.090;2023-07-29T03:16:13;15.90;99.90
10314;DHT22;5202;49.138;10.090;2023-07-29T03:18:49;15.90;99.90
10314;DHT22;5202;49.138;10.090;2023-07-29T03:21:19;15.90;99.90
10314;DHT22;5202;49.138;10.090;2023-07-29T03:23:48;15.90;99.90
10314;DHT22;5202;49.138;10.090;2023-07-29T03:26:16;15.90;99.90
10314;DHT22;5202;49.138;10.090;2023-07-29T03:28:45;15.90;99.90
10314;DHT22;5202;49.138;10.090;2023-07-29T03:31:13;15.90;99.90
10314;DHT22;5202;49.138;10.090;2023-07-29T03:33:42;15.90;99.90
10314;DHT22;5202;49.138;10.090;2023-07-29T03:36:10;15.90;99.90
10314;DHT22;5202;49.138;10.090;2023-07-29T03:38:40;15.90;99.90
10314;DHT22;5202;49.138;10.090;2023-07-29T03:41:09;15.90;99.90
10314;DHT22;5202;49.138;10.090;2023-07-29T03:43:37;15.90;99.90
10314;DHT22;5202;49.138;10.090;2023-07-29T03:46:06;15.90;99.90
10314;DHT22;5202;49.138;10.090;2023-07-29T03:48:39;15.90;99.90
10314;DHT22;5202;49.138;10.090;2023-07-29T03:51:07;15.90;99.90
10314;DHT22;5202;49.138;10.090;2023-07-29T03:53:36;15.90;99.90
10314;DHT22;5202;49.138;10.090;2023-07-29T03:56:06;15.90;99.90
10314;DHT22;5202;49.138;10.090;2023-07-29T03:58:35;15.90;99.90
10314;DHT22;5202;49.138;10.090;2023-07-29T04:01:03;15.90;99.90
10314;DHT22;5202;49.138;10.090;2023-07-29T04:03:33;15.90;99.90
10314;DHT22;5202;49.138;10.090;2023-07-29T04:06:02;15.80;99.90
10314;DHT22;5202;49.138;10.090;2023-07-29T04:08:31;15.80;99.90
10314;DHT22;5202;49.138;10.090;2023-07-29T04:10:59;15.80;99.90
10314;DHT22;5202;49.138;10.090;2023-07-29T04:13:29;15.80;99.90
10314;DHT22;5202;49.138;10.090;2023-07-29T04:15:57;15.80;99.90
10314;DHT22;5202;49.138;10.090;2023-07-29T04:18:27;15.90;99.90
10314;DHT22;5202;49.138;10.090;2023-07-29T04:20:55;15.90;99.90
10314;DHT22;5202;49.138;10.090;2023-07-29T04:23:24;15.90;99.90
10314;DHT22;5202;49.138;10.090;2023-07-29T04:25:52;16.00;99.90
10314;DHT22;5202;49.138;10.090;2023-07-29T04:28:20;16.00;99.90
10314;DHT22;5202;49.138;10.090;2023-07-29T04:30:50;16.10;99.90
10314;DHT22;5202;49.138;10.090;2023-07-29T04:33:19;16.20;99.90
10314;DHT22;5202;49.138;10.090;2023-07-29T04:35:47;16.10;99.90
10314;DHT22;5202;49.138;10.090;2023-07-29T04:38:16;16.20;99.90
10314;DHT22;5202;49.138;10.090;2023-07-29T04:40:44;16.10;99.90
10314;DHT22;5202;49.138;10.090;2023-07-29T04:43:13;16.20;99.90
10314;DHT22;5202;49.138;10.090;2023-07-29T04:45:42;16.20;99.90
10314;DHT22;5202;49.138;10.090;2023-07-29T04:48:12;16.20;99.90
10314;DHT22;5202;49.138;10.090;2023-07-29T04:50:41;16.20;99.90
10314;DHT22;5202;49.138;10.090;2023-07-29T04:53:10;16.20;99.90
10314;DHT22;5202;49.138;10.090;2023-07-29T04:55:38;16.20;99.90
10314;DHT22;5202;49.138;10.090;2023-07-29T04:58:09;16.20;99.90
10314;DHT22;5202;49.138;10.090;2023-07-29T05:00:37;16.20;99.90
10314;DHT22;5202;49.138;10.090;2023-07-29T05:03:05;16.20;99.90
10314;DHT22;5202;49.138;10.090;2023-07-29T05:05:35;16.30;99.90
10314;DHT22;5202;49.138;10.090;2023-07-29T05:08:04;16.20;99.90
10314;DHT22;5202;49.138;10.090;2023-07-29T05:10:32;16.30;99.90
10314;DHT22;5202;49.138;10.090;2023-07-29T05:13:02;16.30;99.90
10314;DHT22;5202;49.138;10.090;2023-07-29T05:15:31;16.30;99.90
10314;DHT22;5202;49.138;10.090;2023-07-29T05:17:59;16.40;99.90
10314;DHT22;5202;49.138;10.090;2023-07-29T05:20:28;16.40;99.90
10314;DHT22;5202;49.138;10.090;2023-07-29T05:22:58;16.40;99.90
10314;DHT22;5202;49.138;10.090;2023-07-29T05:25:26;16.40;99.90
10314;DHT22;5202;49.138;10.090;2023-07-29T05:27:54;16.40;99.90
10314;DHT22;5202;49.138;10.090;2023-07-29T05:30:24;16.40;99.90
10314;DHT22;5202;49.138;10.090;2023-07-29T05:32:53;16.50;99.90
10314;DHT22;5202;49.138;10.090;2023-07-29T05:35:22;16.50;99.90
10314;DHT22;5202;49.138;10.090;2023-07-29T05:37:51;16.50;99.90
10314;DHT22;5202;49.138;10.090;2023-07-29T05:40:21;16.50;99.90
10314;DHT22;5202;49.138;10.090;2023-07-29T05:42:49;16.50;99.90
10314;DHT22;5202;49.138;10.090;2023-07-29T05:45:17;16.50;99.90
10314;DHT22;5202;49.138;10.090;2023-07-29T05:47:46;16.50;99.90
10314;DHT22;5202;49.138;10.090;2023-07-29T05:50:15;16.50;99.90
10314;DHT22;5202;49.138;10.090;2023-07-29T05:52:43;16.50;99.90
10314;DHT22;5202;49.138;10.090;2023-07-29T05:55:12;16.50;99.90
10314;DHT22;5202;49.138;10.090;2023-07-29T05:57:41;16.50;99.90
10314;DHT22;5202;49.138;10.090;2023-07-29T06:00:11;16.50;99.90
10314;DHT22;5202;49.138;10.090;2023-07-29T06:02:40;16.50;99.90
10314;DHT22;5202;49.138;10.090;2023-07-29T06:05:13;16.60;99.90
10314;DHT22;5202;49.138;10.090;2023-07-29T06:07:42;16.60;99.90
10314;DHT22;5202;49.138;10.090;2023-07-29T06:10:13;16.60;99.90
10314;DHT22;5202;49.138;10.090;2023-07-29T06:12:46;16.60;99.90
10314;DHT22;5202;49.138;10.090;2023-07-29T06:15:15;16.70;99.90
10314;DHT22;5202;49.138;10.090;2023-07-29T06:17:43;16.70;99.90
10314;DHT22;5202;49.138;10.090;2023-07-29T06:20:11;16.80;99.90
10314;DHT22;5202;49.138;10.090;2023-07-29T06:22:41;16.80;99.90
10314;DHT22;5202;49.138;10.090;2023-07-29T06:25:09;16.90;99.90
10314;DHT22;5202;49.138;10.090;2023-07-29T06:27:38;16.90;99.90
10314;DHT22;5202;49.138;10.090;2023-07-29T06:30:08;17.00;99.90
10314;DHT22;5202;49.138;10.090;2023-07-29T06:32:37;17.00;99.90
10314;DHT22;5202;49.138;10.090;2023-07-29T06:35:06;17.10;99.90
10314;DHT22;5202;49.138;10.090;2023-07-29T06:37:35;17.20;99.90
10314;DHT22;5202;49.138;10.090;2023-07-29T06:40:04;17.20;99.90
10314;DHT22;5202;49.138;10.090;2023-07-29T06:42:33;17.30;99.90
10314;DHT22;5202;49.138;10.090;2023-07-29T06:45:01;17.30;99.90
10314;DHT22;5202;49.138;10.090;2023-07-29T06:47:31;17.40;99.90
10314;DHT22;5202;49.138;10.090;2023-07-29T06:49:59;17.40;99.90
10314;DHT22;5202;49.138;10.090;2023-07-29T06:52:28;17.50;99.90
10314;DHT22;5202;49.138;10.090;2023-07-29T06:54:56;17.60;99.90
10314;DHT22;5202;49.138;10.090;2023-07-29T06:57:25;17.60;99.90
10314;DHT22;5202;49.138;10.090;2023-07-29T06:59:53;17.70;99.90
10314;DHT22;5202;49.138;10.090;2023-07-29T07:02:21;17.70;99.90
10314;DHT22;5202;49.138;10.090;2023-07-29T07:04:51;17.70;99.90
10314;DHT22;5202;49.138;10.090;2023-07-29T07:07:19;17.80;99.90
10314;DHT22;5202;49.138;10.090;2023-07-29T07:09:48;17.80;99.90
10314;DHT22;5202;49.138;10.090;2023-07-29T07:12:16;17.80;99.90
10314;DHT22;5202;49.138;10.090;2023-07-29T07:14:45;17.80;99.90
10314;DHT22;5202;49.138;10.090;2023-07-29T07:17:13;17.90;99.90
10314;DHT22;5202;49.138;10.090;2023-07-29T07:19:42;17.90;99.90
10314;DHT22;5202;49.138;10.090;2023-07-29T07:22:11;17.90;99.90
10314;DHT22;5202;49.138;10.090;2023-07-29T07:24:40;17.90;99.90
10314;DHT22;5202;49.138;10.090;2023-07-29T07:27:08;18.00;99.90
10314;DHT22;5202;49.138;10.090;2023-07-29T07:29:36;18.00;99.90
10314;DHT22;5202;49.138;10.090;2023-07-29T07:32:05;18.10;99.90
10314;DHT22;5202;49.138;10.090;2023-07-29T07:34:34;18.10;99.90
10314;DHT22;5202;49.138;10.090;2023-07-29T07:37:02;18.20;99.90
10314;DHT22;5202;49.138;10.090;2023-07-29T07:39:33;18.20;99.90
10314;DHT22;5202;49.138;10.090;2023-07-29T07:42:01;18.30;99.90
10314;DHT22;5202;49.138;10.090;2023-07-29T07:44:30;18.40;99.90
10314;DHT22;5202;49.138;10.090;2023-07-29T07:46:58;18.40;99.90
10314;DHT22;5202;49.138;10.090;2023-07-29T07:49:30;18.40;99.90
10314;DHT22;5202;49.138;10.090;2023-07-29T07:51:59;18.50;99.90
10314;DHT22;5202;49.138;10.090;2023-07-29T07:54:27;18.50;99.90
10314;DHT22;5202;49.138;10.090;2023-07-29T07:56:57;18.50;99.90
10314;DHT22;5202;49.138;10.090;2023-07-29T07:59:25;18.50;99.90
10314;DHT22;5202;49.138;10.090;2023-07-29T08:01:53;18.50;99.90
10314;DHT22;5202;49.138;10.090;2023-07-29T08:04:22;18.60;99.90
10314;DHT22;5202;49.138;10.090;2023-07-29T08:06:52;18.50;99.90
10314;DHT22;5202;49.138;10.090;2023-07-29T08:09:20;18.50;99.90
10314;DHT22;5202;49.138;10.090;2023-07-29T08:11:49;18.50;99.90
10314;DHT22;5202;49.138;10.090;2023-07-29T08:14:18;18.50;99.90
10314;DHT22;5202;49.138;10.090;2023-07-29T08:16:47;18.50;99.90
10314;DHT22;5202;49.138;10.090;2023-07-29T08:19:15;18.40;99.90
10314;DHT22;5202;49.138;10.090;2023-07-29T08:21:46;18.40;99.90
10314;DHT22;5202;49.138;10.090;2023-07-29T08:24:14;18.30;99.90
10314;DHT22;5202;49.138;10.090;2023-07-29T08:26:42;18.30;99.90
10314;DHT22;5202;49.138;10.090;2023-07-29T08:29:10;18.30;99.90
10314;DHT22;5202;49.138;10.090;2023-07-29T08:31:40;18.30;99.90
10314;DHT22;5202;49.138;10.090;2023-07-29T08:34:09;18.20;99.90
10314;DHT22;5202;49.138;10.090;2023-07-29T08:36:37;18.20;99.90
10314;DHT22;5202;49.138;10.090;2023-07-29T08:39:05;18.10;99.90
10314;DHT22;5202;49.138;10.090;2023-07-29T08:41:39;18.10;99.90
10314;DHT22;5202;49.138;10.090;2023-07-29T08:44:15;18.00;99.90
10314;DHT22;5202;49.138;10.090;2023-07-29T08:46:48;18.00;99.90
10314;DHT22;5202;49.138;10.090;2023-07-29T08:49:18;18.00;99.90
10314;DHT22;5202;49.138;10.090;2023-07-29T08:51:47;18.00;99.90
10314;DHT22;5202;49.138;10.090;2023-07-29T08:54:16;18.00;99.90
10314;DHT22;5202;49.138;10.090;2023-07-29T08:56:45;18.10;99.90
10314;DHT22;5202;49.138;10.090;2023-07-29T08:59:13;18.20;99.90
10314;DHT22;5202;49.138;10.090;2023-07-29T09:01:43;18.30;99.90
10314;DHT22;5202;49.138;10.090;2023-07-29T09:04:15;18.40;99.90
10314;DHT22;5202;49.138;10.090;2023-07-29T09:06:45;18.40;99.90
10314;DHT22;5202;49.138;10.090;2023-07-29T09:09:14;18.50;99.90
10314;DHT22;5202;49.138;10.090;2023-07-29T09:11:43;18.60;99.90
10314;DHT22;5202;49.138;10.090;2023-07-29T09:14:12;18.70;99.90
10314;DHT22;5202;49.138;10.090;2023-07-29T09:16:41;18.70;99.90
10314;DHT22;5202;49.138;10.090;2023-07-29T09:19:10;18.80;99.90
10314;DHT22;5202;49.138;10.090;2023-07-29T09:21:40;19.00;99.90
10314;DHT22;5202;49.138;10.090;2023-07-29T09:24:09;19.20;99.90
10314;DHT22;5202;49.138;10.090;2023-07-29T09:26:38;19.20;99.90
10314;DHT22;5202;49.138;10.090;2023-07-29T09:29:06;19.00;99.90
10314;DHT22;5202;49.138;10.090;2023-07-29T09:31:35;19.10;99.90
10314;DHT22;5202;49.138;10.090;2023-07-29T09:34:05;19.10;99.90
10314;DHT22;5202;49.138;10.090;2023-07-29T09:36:34;19.10;99.90
10314;DHT22;5202;49.138;10.090;2023-07-29T09:39:11;19.10;99.90
10314;DHT22;5202;49.138;10.090;2023-07-29T09:41:40;19.20;99.90
10314;DHT22;5202;49.138;10.090;2023-07-29T09:44:11;19.30;99.90
10314;DHT22;5202;49.138;10.090;2023-07-29T09:46:39;19.40;99.90
10314;DHT22;5202;49.138;10.090;2023-07-29T09:49:08;19.50;99.90
10314;DHT22;5202;49.138;10.090;2023-07-29T09:51:38;19.50;99.90
10314;DHT22;5202;49.138;10.090;2023-07-29T09:54:09;19.50;99.90
10314;DHT22;5202;49.138;10.090;2023-07-29T09:56:41;19.50;99.90
10314;DHT22;5202;49.138;10.090;2023-07-29T09:59:11;19.40;99.90
10314;DHT22;5202;49.138;10.090;2023-07-29T10:01:40;19.40;99.90
10314;DHT22;5202;49.138;10.090;2023-07-29T10:04:09;19.40;99.90
10314;DHT22;5202;49.138;10.090;2023-07-29T10:06:41;19.40;99.90
10314;DHT22;5202;49.138;10.090;2023-07-29T10:09:12;19.60;99.90
10314;DHT22;5202;49.138;10.090;2023-07-29T10:11:42;19.70;99.90
10314;DHT22;5202;49.138;10.090;2023-07-29T10:14:10;19.80;99.90
10314;DHT22;5202;49.138;10.090;2023-07-29T10:16:40;19.80;99.90
10314;DHT22;5202;49.138;10.090;2023-07-29T10:19:09;19.90;99.90
10314;DHT22;5202;49.138;10.090;2023-07-29T10:21:39;20.10;99.90
10314;DHT22;5202;49.138;10.090;2023-07-29T10:24:15;20.20;99.90
10314;DHT22;5202;49.138;10.090;2023-07-29T10:26:49;20.20;99.90
10314;DHT22;5202;49.138;10.090;2023-07-29T10:32:43;20.70;99.90
10314;DHT22;5202;49.138;10.090;2023-07-29T10:35:13;20.80;99.90
10314;DHT22;5202;49.138;10.090;2023-07-29T10:37:42;20.80;99.90
10314;DHT22;5202;49.138;10.090;2023-07-29T10:40:13;20.60;99.90
10314;DHT22;5202;49.138;10.090;2023-07-29T10:43:00;20.50;99.90
10314;DHT22;5202;49.138;10.090;2023-07-29T10:45:37;20.40;99.90
10314;DHT22;5202;49.138;10.090;2023-07-29T10:48:07;20.20;99.90
10314;DHT22;5202;49.138;10.090;2023-07-29T10:50:38;20.10;99.90
10314;DHT22;5202;49.138;10.090;2023-07-29T10:53:07;20.10;99.90
10314;DHT22;5202;49.138;10.090;2023-07-29T10:55:38;19.90;99.90
10314;DHT22;5202;49.138;10.090;2023-07-29T10:58:13;19.80;99.90
10314;DHT22;5202;49.138;10.090;2023-07-29T11:00:45;19.70;99.90
10314;DHT22;5202;49.138;10.090;2023-07-29T11:03:14;19.50;99.90
10314;DHT22;5202;49.138;10.090;2023-07-29T11:05:45;19.50;99.90
10314;DHT22;5202;49.138;10.090;2023-07-29T11:08:23;19.30;99.90
10314;DHT22;5202;49.138;10.090;2023-07-29T11:11:02;19.30;99.90
10314;DHT22;5202;49.138;10.090;2023-07-29T11:13:34;19.30;99.90
10314;DHT22;5202;49.138;10.090;2023-07-29T11:16:04;19.30;99.90
10314;DHT22;5202;49.138;10.090;2023-07-29T11:18:35;19.30;99.90
10314;DHT22;5202;49.138;10.090;2023-07-29T11:21:04;19.30;99.90
10314;DHT22;5202;49.138;10.090;2023-07-29T11:23:34;19.40;99.90
10314;DHT22;5202;49.138;10.090;2023-07-29T11:26:04;19.50;99.90
10314;DHT22;5202;49.138;10.090;2023-07-29T11:28:38;19.60;99.90
10314;DHT22;5202;49.138;10.090;2023-07-29T11:31:07;19.70;99.90
10314;DHT22;5202;49.138;10.090;2023-07-29T11:33:38;19.80;99.90
10314;DHT22;5202;49.138;10.090;2023-07-29T11:36:17;19.90;99.90
10314;DHT22;5202;49.138;10.090;2023-07-29T11:38:46;20.10;99.90
10314;DHT22;5202;49.138;10.090;2023-07-29T11:41:19;20.40;99.90
10314;DHT22;5202;49.138;10.090;2023-07-29T11:43:49;20.60;99.90
10314;DHT22;5202;49.138;10.090;2023-07-29T11:46:21;20.70;99.90
10314;DHT22;5202;49.138;10.090;2023-07-29T11:48:50;20.80;99.90
10314;DHT22;5202;49.138;10.090;2023-07-29T11:51:19;20.80;99.90
10314;DHT22;5202;49.138;10.090;2023-07-29T11:53:48;20.90;99.90
10314;DHT22;5202;49.138;10.090;2023-07-29T11:56:19;21.00;99.90
10314;DHT22;5202;49.138;10.090;2023-07-29T11:58:48;21.10;99.90
10314;DHT22;5202;49.138;10.090;2023-07-29T12:01:17;21.20;99.90
10314;DHT22;5202;49.138;10.090;2023-07-29T12:03:46;21.20;99.90
10314;DHT22;5202;49.138;10.090;2023-07-29T12:06:14;21.20;99.90
10314;DHT22;5202;49.138;10.090;2023-07-29T12:08:43;21.20;99.90
10314;DHT22;5202;49.138;10.090;2023-07-29T12:11:12;21.30;99.90
10314;DHT22;5202;49.138;10.090;2023-07-29T12:13:43;21.40;99.90
10314;DHT22;5202;49.138;10.090;2023-07-29T12:16:16;21.50;99.90
10314;DHT22;5202;49.138;10.090;2023-07-29T12:18:45;21.70;99.90
10314;DHT22;5202;49.138;10.090;2023-07-29T12:21:15;21.70;99.90
10314;DHT22;5202;49.138;10.090;2023-07-29T12:23:45;21.90;99.90
10314;DHT22;5202;49.138;10.090;2023-07-29T12:26:13;21.80;99.90
10314;DHT22;5202;49.138;10.090;2023-07-29T12:28:46;21.80;99.90
10314;DHT22;5202;49.138;10.090;2023-07-29T12:31:15;21.90;99.90
10314;DHT22;5202;49.138;10.090;2023-07-29T12:33:43;22.00;99.90
10314;DHT22;5202;49.138;10.090;2023-07-29T12:36:12;22.10;99.90
10314;DHT22;5202;49.138;10.090;2023-07-29T12:38:42;22.20;99.90
10314;DHT22;5202;49.138;10.090;2023-07-29T12:41:11;22.20;99.90
10314;DHT22;5202;49.138;10.090;2023-07-29T12:43:39;22.20;99.90
10314;DHT22;5202;49.138;10.090;2023-07-29T12:46:09;22.20;99.90
10314;DHT22;5202;49.138;10.090;2023-07-29T12:48:37;22.40;99.90
10314;DHT22;5202;49.138;10.090;2023-07-29T12:51:05;22.40;99.90
10314;DHT22;5202;49.138;10.090;2023-07-29T12:53:34;22.40;99.90
10314;DHT22;5202;49.138;10.090;2023-07-29T12:56:02;22.40;99.90
10314;DHT22;5202;49.138;10.090;2023-07-29T12:58:31;22.40;99.90
10314;DHT22;5202;49.138;10.090;2023-07-29T13:00:59;22.40;99.90
10314;DHT22;5202;49.138;10.090;2023-07-29T13:03:29;22.40;99.90
10314;DHT22;5202;49.138;10.090;2023-07-29T13:05:57;22.60;99.90
10314;DHT22;5202;49.138;10.090;2023-07-29T13:08:26;22.90;99.90
10314;DHT22;5202;49.138;10.090;2023-07-29T13:10:54;23.10;99.90
10314;DHT22;5202;49.138;10.090;2023-07-29T13:13:23;23.10;99.90
10314;DHT22;5202;49.138;10.090;2023-07-29T13:15:51;23.10;99.90
10314;DHT22;5202;49.138;10.090;2023-07-29T13:18:20;22.90;99.90
10314;DHT22;5202;49.138;10.090;2023-07-29T13:20:50;22.80;99.90
10314;DHT22;5202;49.138;10.090;2023-07-29T13:23:18;22.80;99.90
10314;DHT22;5202;49.138;10.090;2023-07-29T13:25:47;22.60;99.90
10314;DHT22;5202;49.138;10.090;2023-07-29T13:28:16;22.60;99.90
10314;DHT22;5202;49.138;10.090;2023-07-29T13:30:44;22.60;99.90
10314;DHT22;5202;49.138;10.090;2023-07-29T13:33:13;22.50;99.90
10314;DHT22;5202;49.138;10.090;2023-07-29T13:35:41;22.50;99.60
10314;DHT22;5202;49.138;10.090;2023-07-29T13:38:11;22.60;98.50
10314;DHT22;5202;49.138;10.090;2023-07-29T13:40:39;22.70;98.60
10314;DHT22;5202;49.138;10.090;2023-07-29T13:43:07;22.90;98.30
10314;DHT22;5202;49.138;10.090;2023-07-29T13:45:36;22.70;98.00
10314;DHT22;5202;49.138;10.090;2023-07-29T13:48:04;22.60;98.70
10314;DHT22;5202;49.138;10.090;2023-07-29T13:50:33;22.50;98.80
10314;DHT22;5202;49.138;10.090;2023-07-29T13:53:01;22.50;99.40
10314;DHT22;5202;49.138;10.090;2023-07-29T13:55:31;22.50;98.90
10314;DHT22;5202;49.138;10.090;2023-07-29T13:57:59;22.50;98.70
10314;DHT22;5202;49.138;10.090;2023-07-29T14:00:27;22.50;99.00
10314;DHT22;5202;49.138;10.090;2023-07-29T14:02:56;22.50;99.30
10314;DHT22;5202;49.138;10.090;2023-07-29T14:05:24;22.40;99.30
10314;DHT22;5202;49.138;10.090;2023-07-29T14:07:54;22.40;99.60
10314;DHT22;5202;49.138;10.090;2023-07-29T14:10:23;22.50;99.90
10314;DHT22;5202;49.138;10.090;2023-07-29T14:12:53;22.50;99.80
10314;DHT22;5202;49.138;10.090;2023-07-29T14:15:22;22.50;99.80
10314;DHT22;5202;49.138;10.090;2023-07-29T14:17:50;22.50;99.90
10314;DHT22;5202;49.138;10.090;2023-07-29T14:20:22;22.50;99.70
10314;DHT22;5202;49.138;10.090;2023-07-29T14:22:50;22.40;99.80
10314;DHT22;5202;49.138;10.090;2023-07-29T14:25:19;22.50;99.30
10314;DHT22;5202;49.138;10.090;2023-07-29T14:27:47;22.50;99.10
10314;DHT22;5202;49.138;10.090;2023-07-29T14:30:17;22.70;98.60
10314;DHT22;5202;49.138;10.090;2023-07-29T14:32:45;22.80;97.60
10314;DHT22;5202;49.138;10.090;2023-07-29T14:35:14;22.90;97.90
10314;DHT22;5202;49.138;10.090;2023-07-29T14:37:42;23.00;97.20
10314;DHT22;5202;49.138;10.090;2023-07-29T14:40:10;23.10;97.50
10314;DHT22;5202;49.138;10.090;2023-07-29T14:42:39;23.20;96.80
10314;DHT22;5202;49.138;10.090;2023-07-29T14:45:07;23.30;96.60
10314;DHT22;5202;49.138;10.090;2023-07-29T14:47:37;23.30;96.00
10314;DHT22;5202;49.138;10.090;2023-07-29T14:50:06;23.40;95.70
10314;DHT22;5202;49.138;10.090;2023-07-29T14:52:35;23.40;95.90
10314;DHT22;5202;49.138;10.090;2023-07-29T14:55:04;23.60;95.70
10314;DHT22;5202;49.138;10.090;2023-07-29T14:57:33;23.70;95.20
10314;DHT22;5202;49.138;10.090;2023-07-29T15:00:03;23.70;95.00
10314;DHT22;5202;49.138;10.090;2023-07-29T15:02:32;23.60;94.40
10314;DHT22;5202;49.138;10.090;2023-07-29T15:05:02;23.60;94.60
10314;DHT22;5202;49.138;10.090;2023-07-29T15:07:31;23.50;94.70
10314;DHT22;5202;49.138;10.090;2023-07-29T15:09:59;23.50;94.70
10314;DHT22;5202;49.138;10.090;2023-07-29T15:12:28;23.50;94.40
10314;DHT22;5202;49.138;10.090;2023-07-29T15:14:56;23.50;94.60
10314;DHT22;5202;49.138;10.090;2023-07-29T15:17:24;23.40;94.00
10314;DHT22;5202;49.138;10.090;2023-07-29T15:19:53;23.40;94.60
10314;DHT22;5202;49.138;10.090;2023-07-29T15:22:23;23.40;94.70
10314;DHT22;5202;49.138;10.090;2023-07-29T15:24:51;23.50;94.50
10314;DHT22;5202;49.138;10.090;2023-07-29T15:27:23;23.50;93.90
10314;DHT22;5202;49.138;10.090;2023-07-29T15:30:05;23.50;93.90
10314;DHT22;5202;49.138;10.090;2023-07-29T15:32:35;23.40;93.10
10314;DHT22;5202;49.138;10.090;2023-07-29T15:35:03;23.30;93.60
10314;DHT22;5202;49.138;10.090;2023-07-29T15:37:36;23.30;94.10
10314;DHT22;5202;49.138;10.090;2023-07-29T15:40:06;23.40;93.70
10314;DHT22;5202;49.138;10.090;2023-07-29T15:42:35;23.50;94.10
10314;DHT22;5202;49.138;10.090;2023-07-29T15:45:04;23.50;93.00
10314;DHT22;5202;49.138;10.090;2023-07-29T15:47:33;23.60;92.80